sensor_id;sensor_type;location;lat;lon;timestamp;P1;P2;P0
54869;PMS5003;40756;-37.950;145.008;2022-08-01T00:00:47;2;1;
54869;PMS5003;40756;-37.950;145.008;2022-08-01T00:03:17;3;3;
54869;PMS5003;40756;-37.950;145.008;2022-08-01T00:05:47;5;3;
54869;PMS5003;40756;-37.950;145.008;2022-08-01T00:08:18;2;2;
54869;PMS5003;40756;-37.950;145.008;2022-08-01T00:10:48;1;1;
54869;PMS5003;40756;-37.950;145.008;2022-08-01T00:13:18;3;3;
54869;PMS5003;40756;-37.950;145.008;2022-08-01T00:15:47;7;5;
54869;PMS5003;40756;-37.950;145.008;2022-08-01T00:18:17;1;1;
54869;PMS5003;40756;-37.950;145.008;2022-08-01T00:20:47;0;0;
54869;PMS5003;40756;-37.950;145.008;2022-08-01T00:23:16;0;0;
54869;PMS5003;40756;-37.950;145.008;2022-08-01T00:25:46;1;0;
54869;PMS5003;40756;-37.950;145.008;2022-08-01T00:28:16;1;1;
54869;PMS5003;40756;-37.950;145.008;2022-08-01T00:30:45;1;1;
54869;PMS5003;40756;-37.950;145.008;2022-08-01T00:33:15;1;1;
54869;PMS5003;40756;-37.950;145.008;2022-08-01T00:35:46;1;0;
54869;PMS5003;40756;-37.950;145.008;2022-08-01T00:38:16;2;1;
54869;PMS5003;40756;-37.950;145.008;2022-08-01T00:40:47;0;0;
54869;PMS5003;40756;-37.950;145.008;2022-08-01T00:43:17;0;0;
54869;PMS5003;40756;-37.950;145.008;2022-08-01T00:45:47;0;0;
54869;PMS5003;40756;-37.950;145.008;2022-08-01T00:48:17;0;0;
54869;PMS5003;40756;-37.950;145.008;2022-08-01T00:50:47;0;0;
54869;PMS5003;40756;-37.950;145.008;2022-08-01T00:53:16;0;0;
54869;PMS5003;40756;-37.950;145.008;2022-08-01T00:55:47;0;0;
54869;PMS5003;40756;-37.950;145.008;2022-08-01T00:58:17;1;0;
54869;PMS5003;40756;-37.950;145.008;2022-08-01T01:00:46;1;0;
54869;PMS5003;40756;-37.950;145.008;2022-08-01T01:03:16;0;0;
54869;PMS5003;40756;-37.950;145.008;2022-08-01T01:05:48;0;0;
54869;PMS5003;40756;-37.950;145.008;2022-08-01T01:08:32;0;0;
54869;PMS5003;40756;-37.950;145.008;2022-08-01T01:11:52;0;0;
54869;PMS5003;40756;-37.950;145.008;2022-08-01T01:14:30;0;0;
54869;PMS5003;40756;-37.950;145.008;2022-08-01T01:17:07;0;0;
54869;PMS5003;40756;-37.950;145.008;2022-08-01T01:19:38;0;0;
54869;PMS5003;40756;-37.950;145.008;2022-08-01T01:22:18;0;0;
54869;PMS5003;40756;-37.950;145.008;2022-08-01T01:24:58;2;1;
54869;PMS5003;40756;-37.950;145.008;2022-08-01T01:27:51;0;0;
54869;PMS5003;40756;-37.950;145.008;2022-08-01T01:30:25;0;0;
54869;PMS5003;40756;-37.950;145.008;2022-08-01T01:32:58;0;0;
54869;PMS5003;40756;-37.950;145.008;2022-08-01T01:35:32;0;0;
54869;PMS5003;40756;-37.950;145.008;2022-08-01T01:38:07;1;0;
54869;PMS5003;40756;-37.950;145.008;2022-08-01T01:40:42;2;2;
54869;PMS5003;40756;-37.950;145.008;2022-08-01T01:43:19;5;3;
54869;PMS5003;40756;-37.950;145.008;2022-08-01T01:45:51;1;1;
54869;PMS5003;40756;-37.950;145.008;2022-08-01T01:48:24;0;0;
54869;PMS5003;40756;-37.950;145.008;2022-08-01T01:50:55;3;3;
54869;PMS5003;40756;-37.950;145.008;2022-08-01T01:53:27;2;0;
54869;PMS5003;40756;-37.950;145.008;2022-08-01T01:55:59;3;3;
54869;PMS5003;40756;-37.950;145.008;2022-08-01T01:58:37;1;1;
54869;PMS5003;40756;-37.950;145.008;2022-08-01T02:01:42;1;1;
54869;PMS5003;40756;-37.950;145.008;2022-08-01T02:04:30;1;1;
54869;PMS5003;40756;-37.950;145.008;2022-08-01T02:07:04;1;1;
54869;PMS5003;40756;-37.950;145.008;2022-08-01T02:09:37;3;2;
54869;PMS5003;40756;-37.950;145.008;2022-08-01T02:12:10;3;3;
54869;PMS5003;40756;-37.950;145.008;2022-08-01T02:14:54;1;1;
54869;PMS5003;40756;-37.950;145.008;2022-08-01T02:17:25;0;0;
54869;PMS5003;40756;-37.950;145.008;2022-08-01T02:19:57;1;1;
54869;PMS5003;40756;-37.950;145.008;2022-08-01T02:22:30;0;0;
54869;PMS5003;40756;-37.950;145.008;2022-08-01T02:25:07;2;1;
54869;PMS5003;40756;-37.950;145.008;2022-08-01T02:27:47;1;1;
54869;PMS5003;40756;-37.950;145.008;2022-08-01T02:30:24;1;0;
54869;PMS5003;40756;-37.950;145.008;2022-08-01T02:32:57;1;1;
54869;PMS5003;40756;-37.950;145.008;2022-08-01T02:35:33;1;1;
54869;PMS5003;40756;-37.950;145.008;2022-08-01T02:38:11;0;0;
54869;PMS5003;40756;-37.950;145.008;2022-08-01T02:40:47;4;4;
54869;PMS5003;40756;-37.950;145.008;2022-08-01T02:41:05;5;4;
54869;PMS5003;40756;-37.950;145.008;2022-08-01T02:43:40;1;1;
54869;PMS5003;40756;-37.950;145.008;2022-08-01T02:46:16;0;0;
54869;PMS5003;40756;-37.950;145.008;2022-08-01T02:48:49;1;1;
54869;PMS5003;40756;-37.950;145.008;2022-08-01T02:51:23;2;0;
54869;PMS5003;40756;-37.950;145.008;2022-08-01T02:53:53;1;1;
54869;PMS5003;40756;-37.950;145.008;2022-08-01T02:56:26;1;0;
54869;PMS5003;40756;-37.950;145.008;2022-08-01T02:59:02;2;1;
54869;PMS5003;40756;-37.950;145.008;2022-08-01T03:01:36;0;0;
54869;PMS5003;40756;-37.950;145.008;2022-08-01T03:04:07;1;0;
54869;PMS5003;40756;-37.950;145.008;2022-08-01T03:06:43;0;0;
54869;PMS5003;40756;-37.950;145.008;2022-08-01T03:09:21;0;0;
54869;PMS5003;40756;-37.950;145.008;2022-08-01T03:11:52;1;1;
54869;PMS5003;40756;-37.950;145.008;2022-08-01T03:14:27;1;1;
54869;PMS5003;40756;-37.950;145.008;2022-08-01T03:16:59;1;1;
54869;PMS5003;40756;-37.950;145.008;2022-08-01T03:19:32;0;0;
54869;PMS5003;40756;-37.950;145.008;2022-08-01T03:22:03;0;0;
54869;PMS5003;40756;-37.950;145.008;2022-08-01T03:24:38;1;0;
54869;PMS5003;40756;-37.950;145.008;2022-08-01T03:27:10;1;1;
54869;PMS5003;40756;-37.950;145.008;2022-08-01T03:29:45;4;4;
54869;PMS5003;40756;-37.950;145.008;2022-08-01T03:32:16;3;3;
54869;PMS5003;40756;-37.950;145.008;2022-08-01T03:34:49;3;3;
54869;PMS5003;40756;-37.950;145.008;2022-08-01T03:37:21;1;0;
54869;PMS5003;40756;-37.950;145.008;2022-08-01T03:39:55;0;0;
54869;PMS5003;40756;-37.950;145.008;2022-08-01T03:42:32;1;1;
54869;PMS5003;40756;-37.950;145.008;2022-08-01T03:45:06;2;2;
54869;PMS5003;40756;-37.950;145.008;2022-08-01T03:47:39;3;3;
54869;PMS5003;40756;-37.950;145.008;2022-08-01T03:48:16;4;3;
54869;PMS5003;40756;-37.950;145.008;2022-08-01T03:50:47;1;1;
54869;PMS5003;40756;-37.950;145.008;2022-08-01T03:53:19;2;2;
54869;PMS5003;40756;-37.950;145.008;2022-08-01T03:55:52;2;2;
54869;PMS5003;40756;-37.950;145.008;2022-08-01T03:58:23;3;3;
54869;PMS5003;40756;-37.950;145.008;2022-08-01T04:00:54;4;3;
54869;PMS5003;40756;-37.950;145.008;2022-08-01T04:03:25;4;3;
54869;PMS5003;40756;-37.950;145.008;2022-08-01T04:05:56;7;5;
54869;PMS5003;40756;-37.950;145.008;2022-08-01T04:08:34;1;1;
54869;PMS5003;40756;-37.950;145.008;2022-08-01T04:11:04;0;0;
54869;PMS5003;40756;-37.950;145.008;2022-08-01T04:13:36;1;1;
54869;PMS5003;40756;-37.950;145.008;2022-08-01T04:16:06;2;1;
54869;PMS5003;40756;-37.950;145.008;2022-08-01T04:18:35;1;1;
54869;PMS5003;40756;-37.950;145.008;2022-08-01T04:21:05;2;1;
54869;PMS5003;40756;-37.950;145.008;2022-08-01T04:23:34;1;1;
54869;PMS5003;40756;-37.950;145.008;2022-08-01T04:26:05;1;1;
54869;PMS5003;40756;-37.950;145.008;2022-08-01T04:28:36;1;0;
54869;PMS5003;40756;-37.950;145.008;2022-08-01T04:31:07;1;1;
54869;PMS5003;40756;-37.950;145.008;2022-08-01T04:33:39;0;0;
54869;PMS5003;40756;-37.950;145.008;2022-08-01T04:36:12;1;1;
54869;PMS5003;40756;-37.950;145.008;2022-08-01T04:38:42;1;1;
54869;PMS5003;40756;-37.950;145.008;2022-08-01T04:41:16;3;3;
54869;PMS5003;40756;-37.950;145.008;2022-08-01T04:43:47;0;0;
54869;PMS5003;40756;-37.950;145.008;2022-08-01T04:46:17;1;0;
54869;PMS5003;40756;-37.950;145.008;2022-08-01T04:48:47;1;0;
54869;PMS5003;40756;-37.950;145.008;2022-08-01T04:51:17;1;1;
54869;PMS5003;40756;-37.950;145.008;2022-08-01T04:53:47;0;0;
54869;PMS5003;40756;-37.950;145.008;2022-08-01T04:56:17;1;1;
54869;PMS5003;40756;-37.950;145.008;2022-08-01T04:58:47;1;1;
54869;PMS5003;40756;-37.950;145.008;2022-08-01T05:01:17;1;0;
54869;PMS5003;40756;-37.950;145.008;2022-08-01T05:03:47;0;0;
54869;PMS5003;40756;-37.950;145.008;2022-08-01T05:06:16;1;1;
54869;PMS5003;40756;-37.950;145.008;2022-08-01T05:08:46;0;0;
54869;PMS5003;40756;-37.950;145.008;2022-08-01T05:11:16;0;0;
54869;PMS5003;40756;-37.950;145.008;2022-08-01T05:13:47;0;0;
54869;PMS5003;40756;-37.950;145.008;2022-08-01T05:16:16;0;0;
54869;PMS5003;40756;-37.950;145.008;2022-08-01T05:18:46;0;0;
54869;PMS5003;40756;-37.950;145.008;2022-08-01T05:21:15;2;2;
54869;PMS5003;40756;-37.950;145.008;2022-08-01T05:23:45;0;0;
54869;PMS5003;40756;-37.950;145.008;2022-08-01T05:26:14;0;0;
54869;PMS5003;40756;-37.950;145.008;2022-08-01T05:28:44;1;0;
54869;PMS5003;40756;-37.950;145.008;2022-08-01T05:31:13;1;0;
54869;PMS5003;40756;-37.950;145.008;2022-08-01T05:33:43;0;0;
54869;PMS5003;40756;-37.950;145.008;2022-08-01T05:36:15;2;2;
54869;PMS5003;40756;-37.950;145.008;2022-08-01T05:38:44;2;1;
54869;PMS5003;40756;-37.950;145.008;2022-08-01T05:41:14;1;0;
54869;PMS5003;40756;-37.950;145.008;2022-08-01T05:43:44;1;1;
54869;PMS5003;40756;-37.950;145.008;2022-08-01T05:46:14;1;0;
54869;PMS5003;40756;-37.950;145.008;2022-08-01T05:48:44;0;0;
54869;PMS5003;40756;-37.950;145.008;2022-08-01T05:51:26;3;2;
54869;PMS5003;40756;-37.950;145.008;2022-08-01T17:03:09;7;7;
54869;PMS5003;40756;-37.950;145.008;2022-08-01T17:05:39;2;2;
54869;PMS5003;40756;-37.950;145.008;2022-08-01T17:08:09;4;3;
54869;PMS5003;40756;-37.950;145.008;2022-08-01T17:10:39;4;4;
54869;PMS5003;40756;-37.950;145.008;2022-08-01T17:13:08;6;6;
54869;PMS5003;40756;-37.950;145.008;2022-08-01T17:15:38;6;5;
54869;PMS5003;40756;-37.950;145.008;2022-08-01T17:18:07;6;6;
54869;PMS5003;40756;-37.950;145.008;2022-08-01T17:20:37;4;4;
54869;PMS5003;40756;-37.950;145.008;2022-08-01T17:23:07;5;5;
54869;PMS5003;40756;-37.950;145.008;2022-08-01T17:25:37;3;3;
54869;PMS5003;40756;-37.950;145.008;2022-08-01T17:28:07;3;3;
54869;PMS5003;40756;-37.950;145.008;2022-08-01T17:30:36;2;2;
54869;PMS5003;40756;-37.950;145.008;2022-08-01T17:33:06;1;1;
54869;PMS5003;40756;-37.950;145.008;2022-08-01T17:35:36;0;0;
54869;PMS5003;40756;-37.950;145.008;2022-08-01T17:38:06;2;2;
54869;PMS5003;40756;-37.950;145.008;2022-08-01T17:40:35;3;3;
54869;PMS5003;40756;-37.950;145.008;2022-08-01T17:43:05;1;1;
54869;PMS5003;40756;-37.950;145.008;2022-08-01T17:45:35;4;4;
54869;PMS5003;40756;-37.950;145.008;2022-08-01T17:48:05;3;2;
54869;PMS5003;40756;-37.950;145.008;2022-08-01T17:50:34;2;2;
54869;PMS5003;40756;-37.950;145.008;2022-08-01T17:53:04;1;1;
54869;PMS5003;40756;-37.950;145.008;2022-08-01T17:55:34;2;2;
54869;PMS5003;40756;-37.950;145.008;2022-08-01T17:58:03;1;1;
54869;PMS5003;40756;-37.950;145.008;2022-08-01T18:00:33;2;2;
54869;PMS5003;40756;-37.950;145.008;2022-08-01T18:03:03;2;2;
54869;PMS5003;40756;-37.950;145.008;2022-08-01T18:05:35;2;2;
54869;PMS5003;40756;-37.950;145.008;2022-08-01T18:08:05;3;3;
54869;PMS5003;40756;-37.950;145.008;2022-08-01T18:10:35;5;5;
54869;PMS5003;40756;-37.950;145.008;2022-08-01T18:13:05;5;4;
54869;PMS5003;40756;-37.950;145.008;2022-08-01T18:15:34;4;3;
54869;PMS5003;40756;-37.950;145.008;2022-08-01T18:18:04;1;1;
54869;PMS5003;40756;-37.950;145.008;2022-08-01T18:20:34;0;0;
54869;PMS5003;40756;-37.950;145.008;2022-08-01T18:23:04;1;0;
54869;PMS5003;40756;-37.950;145.008;2022-08-01T18:25:33;2;1;
54869;PMS5003;40756;-37.950;145.008;2022-08-01T18:28:04;1;1;
54869;PMS5003;40756;-37.950;145.008;2022-08-01T18:30:33;2;1;
54869;PMS5003;40756;-37.950;145.008;2022-08-01T18:33:03;1;1;
54869;PMS5003;40756;-37.950;145.008;2022-08-01T18:35:33;1;1;
54869;PMS5003;40756;-37.950;145.008;2022-08-01T18:38:02;1;1;
54869;PMS5003;40756;-37.950;145.008;2022-08-01T18:40:32;1;1;
54869;PMS5003;40756;-37.950;145.008;2022-08-01T18:43:03;1;1;
54869;PMS5003;40756;-37.950;145.008;2022-08-01T18:45:32;1;1;
54869;PMS5003;40756;-37.950;145.008;2022-08-01T18:48:02;2;2;
54869;PMS5003;40756;-37.950;145.008;2022-08-01T18:50:33;2;1;
54869;PMS5003;40756;-37.950;145.008;2022-08-01T18:53:03;1;1;
54869;PMS5003;40756;-37.950;145.008;2022-08-01T18:55:33;2;2;
54869;PMS5003;40756;-37.950;145.008;2022-08-01T18:58:03;1;1;
54869;PMS5003;40756;-37.950;145.008;2022-08-01T19:00:33;1;1;
54869;PMS5003;40756;-37.950;145.008;2022-08-01T19:03:02;2;2;
54869;PMS5003;40756;-37.950;145.008;2022-08-01T19:05:32;2;2;
54869;PMS5003;40756;-37.950;145.008;2022-08-01T19:08:04;1;1;
54869;PMS5003;40756;-37.950;145.008;2022-08-01T19:10:34;1;1;
54869;PMS5003;40756;-37.950;145.008;2022-08-01T19:13:05;1;1;
54869;PMS5003;40756;-37.950;145.008;2022-08-01T19:15:36;1;0;
54869;PMS5003;40756;-37.950;145.008;2022-08-01T19:18:05;1;1;
54869;PMS5003;40756;-37.950;145.008;2022-08-01T19:20:35;2;1;
54869;PMS5003;40756;-37.950;145.008;2022-08-01T19:23:05;1;1;
54869;PMS5003;40756;-37.950;145.008;2022-08-01T19:25:34;2;2;
54869;PMS5003;40756;-37.950;145.008;2022-08-01T19:28:04;1;1;
54869;PMS5003;40756;-37.950;145.008;2022-08-01T19:30:34;2;1;
54869;PMS5003;40756;-37.950;145.008;2022-08-01T19:33:04;1;1;
54869;PMS5003;40756;-37.950;145.008;2022-08-01T19:35:34;1;1;
54869;PMS5003;40756;-37.950;145.008;2022-08-01T19:38:03;1;1;
54869;PMS5003;40756;-37.950;145.008;2022-08-01T19:40:33;1;1;
54869;PMS5003;40756;-37.950;145.008;2022-08-01T19:43:03;0;0;
54869;PMS5003;40756;-37.950;145.008;2022-08-01T19:45:37;3;3;
54869;PMS5003;40756;-37.950;145.008;2022-08-01T19:48:07;0;0;
54869;PMS5003;40756;-37.950;145.008;2022-08-01T19:50:38;1;1;
54869;PMS5003;40756;-37.950;145.008;2022-08-01T19:53:09;0;0;
54869;PMS5003;40756;-37.950;145.008;2022-08-01T19:55:40;2;2;
54869;PMS5003;40756;-37.950;145.008;2022-08-01T19:58:12;3;2;
54869;PMS5003;40756;-37.950;145.008;2022-08-01T20:00:43;2;2;
54869;PMS5003;40756;-37.950;145.008;2022-08-01T20:03:14;2;2;
54869;PMS5003;40756;-37.950;145.008;2022-08-01T20:05:46;4;4;
54869;PMS5003;40756;-37.950;145.008;2022-08-01T20:08:17;3;3;
54869;PMS5003;40756;-37.950;145.008;2022-08-01T20:10:48;3;3;
54869;PMS5003;40756;-37.950;145.008;2022-08-01T20:13:19;1;1;
54869;PMS5003;40756;-37.950;145.008;2022-08-01T20:15:49;3;2;
54869;PMS5003;40756;-37.950;145.008;2022-08-01T20:18:20;1;1;
54869;PMS5003;40756;-37.950;145.008;2022-08-01T20:20:52;3;3;
54869;PMS5003;40756;-37.950;145.008;2022-08-01T20:23:22;3;2;
54869;PMS5003;40756;-37.950;145.008;2022-08-01T20:25:53;4;3;
54869;PMS5003;40756;-37.950;145.008;2022-08-01T20:28:25;4;4;
54869;PMS5003;40756;-37.950;145.008;2022-08-01T20:30:57;4;3;
54869;PMS5003;40756;-37.950;145.008;2022-08-01T20:33:27;5;5;
54869;PMS5003;40756;-37.950;145.008;2022-08-01T20:35:57;6;5;
54869;PMS5003;40756;-37.950;145.008;2022-08-01T20:38:28;6;6;
54869;PMS5003;40756;-37.950;145.008;2022-08-01T20:40:57;7;7;
54869;PMS5003;40756;-37.950;145.008;2022-08-01T20:43:29;5;5;
54869;PMS5003;40756;-37.950;145.008;2022-08-01T20:46:00;5;4;
54869;PMS5003;40756;-37.950;145.008;2022-08-01T20:48:30;3;3;
54869;PMS5003;40756;-37.950;145.008;2022-08-01T20:51:00;4;4;
54869;PMS5003;40756;-37.950;145.008;2022-08-01T20:53:31;2;2;
54869;PMS5003;40756;-37.950;145.008;2022-08-01T20:56:03;1;1;
54869;PMS5003;40756;-37.950;145.008;2022-08-01T20:58:40;2;2;
54869;PMS5003;40756;-37.950;145.008;2022-08-01T21:01:22;2;2;
54869;PMS5003;40756;-37.950;145.008;2022-08-01T21:04:05;3;3;
54869;PMS5003;40756;-37.950;145.008;2022-08-01T21:06:48;3;3;
54869;PMS5003;40756;-37.950;145.008;2022-08-01T21:09:22;3;3;
54869;PMS5003;40756;-37.950;145.008;2022-08-01T21:11:56;3;2;
54869;PMS5003;40756;-37.950;145.008;2022-08-01T21:14:32;4;2;
54869;PMS5003;40756;-37.950;145.008;2022-08-01T21:17:12;2;2;
54869;PMS5003;40756;-37.950;145.008;2022-08-01T21:19:49;2;2;
54869;PMS5003;40756;-37.950;145.008;2022-08-01T21:22:23;3;3;
54869;PMS5003;40756;-37.950;145.008;2022-08-01T21:25:00;2;2;
54869;PMS5003;40756;-37.950;145.008;2022-08-01T21:27:33;2;2;
54869;PMS5003;40756;-37.950;145.008;2022-08-01T21:30:06;3;2;
54869;PMS5003;40756;-37.950;145.008;2022-08-01T21:32:36;4;2;
54869;PMS5003;40756;-37.950;145.008;2022-08-01T21:35:09;4;4;
54869;PMS5003;40756;-37.950;145.008;2022-08-01T21:37:41;5;5;
54869;PMS5003;40756;-37.950;145.008;2022-08-01T21:40:12;16;13;
54869;PMS5003;40756;-37.950;145.008;2022-08-01T21:42:43;14;13;
54869;PMS5003;40756;-37.950;145.008;2022-08-01T21:45:17;14;13;
54869;PMS5003;40756;-37.950;145.008;2022-08-01T21:47:49;15;14;
54869;PMS5003;40756;-37.950;145.008;2022-08-01T21:50:19;7;7;
54869;PMS5003;40756;-37.950;145.008;2022-08-01T21:53:03;4;3;
54869;PMS5003;40756;-37.950;145.008;2022-08-01T21:55:46;3;3;
54869;PMS5003;40756;-37.950;145.008;2022-08-01T21:58:29;4;3;
54869;PMS5003;40756;-37.950;145.008;2022-08-01T22:01:04;3;3;
54869;PMS5003;40756;-37.950;145.008;2022-08-01T22:03:40;4;4;
54869;PMS5003;40756;-37.950;145.008;2022-08-01T22:06:13;6;6;
54869;PMS5003;40756;-37.950;145.008;2022-08-01T22:08:49;5;5;
54869;PMS5003;40756;-37.950;145.008;2022-08-01T22:11:21;3;3;
54869;PMS5003;40756;-37.950;145.008;2022-08-01T22:13:56;6;4;
54869;PMS5003;40756;-37.950;145.008;2022-08-01T22:16:27;4;4;
54869;PMS5003;40756;-37.950;145.008;2022-08-01T22:19:00;5;5;
54869;PMS5003;40756;-37.950;145.008;2022-08-01T22:21:30;3;3;
54869;PMS5003;40756;-37.950;145.008;2022-08-01T22:24:01;3;3;
54869;PMS5003;40756;-37.950;145.008;2022-08-01T22:26:32;3;3;
54869;PMS5003;40756;-37.950;145.008;2022-08-01T22:29:09;2;2;
54869;PMS5003;40756;-37.950;145.008;2022-08-01T22:31:39;3;3;
54869;PMS5003;40756;-37.950;145.008;2022-08-01T22:34:09;2;2;
54869;PMS5003;40756;-37.950;145.008;2022-08-01T22:36:40;4;2;
54869;PMS5003;40756;-37.950;145.008;2022-08-01T22:39:11;3;3;
54869;PMS5003;40756;-37.950;145.008;2022-08-01T22:41:47;3;3;
54869;PMS5003;40756;-37.950;145.008;2022-08-01T22:44:24;4;4;
54869;PMS5003;40756;-37.950;145.008;2022-08-01T22:47:02;5;3;
54869;PMS5003;40756;-37.950;145.008;2022-08-01T22:49:35;4;3;
54869;PMS5003;40756;-37.950;145.008;2022-08-01T22:52:10;3;3;
54869;PMS5003;40756;-37.950;145.008;2022-08-01T22:54:46;4;3;
54869;PMS5003;40756;-37.950;145.008;2022-08-01T22:57:19;3;3;
54869;PMS5003;40756;-37.950;145.008;2022-08-01T22:59:58;3;3;
54869;PMS5003;40756;-37.950;145.008;2022-08-01T23:02:31;2;1;
54869;PMS5003;40756;-37.950;145.008;2022-08-01T23:05:04;4;3;
54869;PMS5003;40756;-37.950;145.008;2022-08-01T23:07:38;3;2;
54869;PMS5003;40756;-37.950;145.008;2022-08-01T23:10:11;2;2;
54869;PMS5003;40756;-37.950;145.008;2022-08-01T23:12:43;2;2;
54869;PMS5003;40756;-37.950;145.008;2022-08-01T23:15:13;3;3;
54869;PMS5003;40756;-37.950;145.008;2022-08-01T23:17:42;3;3;
54869;PMS5003;40756;-37.950;145.008;2022-08-01T23:20:13;2;2;
54869;PMS5003;40756;-37.950;145.008;2022-08-01T23:22:44;3;2;
54869;PMS5003;40756;-37.950;145.008;2022-08-01T23:25:15;1;1;
54869;PMS5003;40756;-37.950;145.008;2022-08-01T23:27:46;2;2;
54869;PMS5003;40756;-37.950;145.008;2022-08-01T23:30:15;3;3;
54869;PMS5003;40756;-37.950;145.008;2022-08-01T23:32:45;2;2;
54869;PMS5003;40756;-37.950;145.008;2022-08-01T23:35:15;2;2;
54869;PMS5003;40756;-37.950;145.008;2022-08-01T23:37:45;3;3;
54869;PMS5003;40756;-37.950;145.008;2022-08-01T23:40:14;3;3;
54869;PMS5003;40756;-37.950;145.008;2022-08-01T23:42:44;11;8;
54869;PMS5003;40756;-37.950;145.008;2022-08-01T23:45:13;14;9;
54869;PMS5003;40756;-37.950;145.008;2022-08-01T23:47:43;11;9;
54869;PMS5003;40756;-37.950;145.008;2022-08-01T23:50:12;7;6;
54869;PMS5003;40756;-37.950;145.008;2022-08-01T23:52:42;9;9;
54869;PMS5003;40756;-37.950;145.008;2022-08-01T23:55:12;5;5;
54869;PMS5003;40756;-37.950;145.008;2022-08-01T23:57:42;7;7;
